METAR UND TAF INFORMATION
METAR FOR VEGY
ADDS - METARS form results

(1022 UTC 16 October 2018)
Data provider http://aviationweather.gov/metar/data/
 
METAR text: VEGY 161000Z 23010KT 4500 HZ NSC 32/17 Q1010 NOSIG
Conditions at: VEGY (GAYA , IN) observed 1000 UTC 16 October 2018
Temperature: 32.0°C (90°F)
Dewpoint: 17.0°C (63°F) [RH = 41%]
Pressure (altimeter): 29.82 inches Hg (1010.0 mb)
Winds: from the SW (230 degrees) at 12 MPH (10 knots; 5.1 m/s)
Visibility: 2.80 miles (4.51 km)
Ceiling: at least 12,000 feet AGL
Clouds: sky clear below 12,000 feet AGL
Weather: HZ  (haze)

METAR text: VEGY 160930Z 23008KT 4500 HZ NSC 32/16 Q1011 NOSIG
Conditions at: VEGY (GAYA , IN) observed 0930 UTC 16 October 2018
Temperature: 32.0°C (90°F)
Dewpoint: 16.0°C (61°F) [RH = 38%]
Pressure (altimeter): 29.85 inches Hg (1011.0 mb)
Winds: from the SW (230 degrees) at 9 MPH (8 knots; 4.1 m/s)
Visibility: 2.80 miles (4.51 km)
Ceiling: at least 12,000 feet AGL
Clouds: sky clear below 12,000 feet AGL
Weather: HZ  (haze)

 FLUGHAFENKARTE

 RUNWAY INFORMATION
Runway 10 Runway length 7500 ft Runway width 148 ft
Runway elevation 355 ft Runway displaced threshold 0 ft Runway heading 104
Runway 28 Runway length 7500 ft Runway width 148 ft
Runway elevation 378 ft Runway displaced threshold 245 ft Runway heading 284

 AIRPORT FREQUENCIES
Type TWR Name TWR Frequency 123.5 MHZ

 AIRPORT NEAR NAVIGATION AIDS
Type VOR-DME Name Gaya Frequency 115000 KHZ



Version 3.0.1 EDV-Wallbrecher

Powered by EDV-Wallbrecher | Virtual Airlines Manager